TimeCDT,TemperatureF,Dew PointF,Humidity,Sea Level PressureIn,VisibilityMPH,Wind Direction,Wind SpeedMPH,Gust SpeedMPH,PrecipitationIn,Events,Conditions,WindDirDegrees,DateUTC
12:15 AM,46.4,32.0,57,30.09,10.0,West,12.7,16.1,N/A,,Clear,280,2012-10-05 05:15:00
12:35 AM,44.6,32.0,61,30.09,10.0,West,11.5,-,N/A,,Clear,280,2012-10-05 05:35:00
12:55 AM,44.6,32.0,61,30.09,10.0,West,12.7,18.4,N/A,,Clear,280,2012-10-05 05:55:00
1:15 AM,42.8,32.0,66,30.09,10.0,WNW,9.2,-,N/A,,Clear,290,2012-10-05 06:15:00
1:35 AM,42.8,32.0,66,30.09,10.0,WNW,13.8,-,N/A,,Clear,290,2012-10-05 06:35:00
1:55 AM,42.8,30.2,61,30.10,10.0,West,11.5,-,N/A,,Clear,280,2012-10-05 06:55:00
2:15 AM,42.8,30.2,61,30.09,10.0,WNW,11.5,-,N/A,,Clear,290,2012-10-05 07:15:00
2:35 AM,42.8,30.2,61,30.11,10.0,West,11.5,16.1,N/A,,Clear,280,2012-10-05 07:35:00
2:55 AM,42.8,30.2,61,30.11,10.0,West,8.1,18.4,N/A,,Clear,270,2012-10-05 07:55:00
3:15 AM,41.0,30.2,65,30.11,10.0,West,8.1,-,N/A,,Clear,280,2012-10-05 08:15:00
3:35 AM,41.0,30.2,65,30.11,10.0,West,11.5,18.4,N/A,,Clear,270,2012-10-05 08:35:00
3:55 AM,41.0,30.2,65,30.11,10.0,West,12.7,17.3,N/A,,Clear,270,2012-10-05 08:55:00
4:15 AM,41.0,30.2,65,30.11,10.0,West,10.4,-,N/A,,Clear,270,2012-10-05 09:15:00
4:35 AM,41.0,30.2,65,30.11,10.0,West,10.4,-,N/A,,Clear,260,2012-10-05 09:35:00
4:55 AM,39.2,30.2,70,30.11,10.0,West,8.1,-,N/A,,Clear,260,2012-10-05 09:55:00
5:15 AM,37.4,30.2,75,30.11,10.0,WSW,10.4,-,N/A,,Clear,250,2012-10-05 10:15:00
5:35 AM,37.4,30.2,75,30.10,10.0,West,9.2,-,N/A,,Clear,260,2012-10-05 10:35:00
5:55 AM,37.4,30.2,75,30.10,10.0,West,9.2,-,N/A,,Clear,270,2012-10-05 10:55:00
6:15 AM,37.4,30.2,75,30.11,10.0,West,9.2,-,N/A,,Clear,260,2012-10-05 11:15:00
6:35 AM,37.4,30.2,75,30.11,10.0,West,12.7,-,N/A,,Clear,280,2012-10-05 11:35:00
6:45 AM,39.2,28.4,65,30.10,10.0,West,9.2,-,N/A,,Clear,260,2012-10-05 11:45:00
6:55 AM,37.4,28.4,70,30.10,10.0,West,10.4,-,N/A,,Clear,270,2012-10-05 11:55:00
7:45 AM,41.0,28.4,61,30.10,10.0,West,11.5,17.3,N/A,,Clear,270,2012-10-05 12:45:00
8:55 AM,42.8,28.4,57,30.10,10.0,West,13.8,21.9,N/A,,Clear,270,2012-10-05 13:55:00
9:50 AM,46.4,28.4,50,30.10,10.0,West,13.8,23.0,N/A,,Clear,270,2012-10-05 14:50:00
10:50 AM,48.2,28.4,46,30.09,10.0,West,11.5,23.0,N/A,,Clear,260,2012-10-05 15:50:00
12:45 PM,48.2,26.6,43,30.06,10.0,WSW,13.8,20.7,N/A,,Clear,250,2012-10-05 17:45:00
3:45 PM,51.8,24.8,35,30.02,10.0,WSW,18.4,23.0,N/A,,Scattered Clouds,240,2012-10-05 20:45:00
5:45 PM,48.2,21.2,34,30.03,10.0,WSW,16.1,23.0,N/A,,Clear,250,2012-10-05 22:45:00
6:45 PM,46.4,21.2,37,30.03,10.0,West,6.9,-,N/A,,Clear,260,2012-10-05 23:45:00
7:45 PM,44.6,21.2,39,30.03,10.0,West,11.5,18.4,N/A,,Clear,260,2012-10-06 00:45:00
8:45 PM,42.8,23.0,46,30.02,10.0,West,11.5,-,N/A,,Clear,260,2012-10-06 01:45:00
9:15 PM,41.0,24.8,53,30.02,10.0,West,9.2,-,N/A,,Clear,260,2012-10-06 02:15:00
9:35 PM,41.0,24.8,53,30.03,10.0,WSW,9.2,-,N/A,,Clear,250,2012-10-06 02:35:00
9:55 PM,41.0,24.8,53,30.03,10.0,West,9.2,-,N/A,,Clear,260,2012-10-06 02:55:00
10:35 PM,41.0,24.8,53,30.03,10.0,West,9.2,-,N/A,,Clear,270,2012-10-06 03:35:00
10:55 PM,39.2,24.8,56,30.03,10.0,West,8.1,-,N/A,,Clear,260,2012-10-06 03:55:00
11:15 PM,39.2,24.8,56,30.03,10.0,West,6.9,-,N/A,,Clear,270,2012-10-06 04:15:00
11:35 PM,37.4,24.8,60,30.02,10.0,West,4.6,-,N/A,,Scattered Clouds,260,2012-10-06 04:35:00
11:55 PM,37.4,26.6,65,30.02,10.0,WSW,6.9,-,N/A,,Scattered Clouds,250,2012-10-06 04:55:00